sensor_id;sensor_type;location;lat;lon;timestamp;pressure;altitude;pressure_sealevel;temperature;humidity
15229;BME280;7717;47.792;12.076;2023-02-28T00:00:02;96661.91;;;-3.63;nan
15229;BME280;7717;47.792;12.076;2023-02-28T00:02:35;96657.84;;;-3.75;nan
15229;BME280;7717;47.792;12.076;2023-02-28T00:05:00;96657.50;;;-3.82;nan
15229;BME280;7717;47.792;12.076;2023-02-28T00:07:29;96658.19;;;-3.84;nan
15229;BME280;7717;47.792;12.076;2023-02-28T00:09:54;96663.28;;;-3.83;nan
15229;BME280;7717;47.792;12.076;2023-02-28T00:12:20;96648.69;;;-3.90;nan
15229;BME280;7717;47.792;12.076;2023-02-28T00:14:45;96649.63;;;-4.03;nan
15229;BME280;7717;47.792;12.076;2023-02-28T00:17:11;96649.53;;;-4.04;nan
15229;BME280;7717;47.792;12.076;2023-02-28T00:19:36;96654.16;;;-4.10;nan
15229;BME280;7717;47.792;12.076;2023-02-28T00:22:01;96648.53;;;-4.35;nan
15229;BME280;7717;47.792;12.076;2023-02-28T00:24:27;96656.75;;;-4.50;nan
15229;BME280;7717;47.792;12.076;2023-02-28T00:26:52;96656.00;;;-3.93;nan
15229;BME280;7717;47.792;12.076;2023-02-28T00:29:17;96643.31;;;-4.11;nan
15229;BME280;7717;47.792;12.076;2023-02-28T00:31:43;96646.94;;;-4.06;nan
15229;BME280;7717;47.792;12.076;2023-02-28T00:34:08;96649.66;;;-4.16;nan
15229;BME280;7717;47.792;12.076;2023-02-28T00:36:33;96648.59;;;-4.20;nan
15229;BME280;7717;47.792;12.076;2023-02-28T00:38:59;96643.00;;;-4.44;nan
15229;BME280;7717;47.792;12.076;2023-02-28T00:41:24;96643.69;;;-4.46;nan
15229;BME280;7717;47.792;12.076;2023-02-28T00:43:49;96638.97;;;-4.55;nan
15229;BME280;7717;47.792;12.076;2023-02-28T00:46:15;96639.28;;;-4.50;nan
15229;BME280;7717;47.792;12.076;2023-02-28T00:48:40;96635.34;;;-4.60;nan
15229;BME280;7717;47.792;12.076;2023-02-28T00:51:06;96623.34;;;-4.66;nan
15229;BME280;7717;47.792;12.076;2023-02-28T00:53:31;96635.16;;;-4.63;nan
15229;BME280;7717;47.792;12.076;2023-02-28T00:55:57;96622.88;;;-4.74;nan
15229;BME280;7717;47.792;12.076;2023-02-28T00:58:24;96618.34;;;-4.66;nan
15229;BME280;7717;47.792;12.076;2023-02-28T01:00:51;96627.50;;;-4.66;nan
15229;BME280;7717;47.792;12.076;2023-02-28T01:03:17;96628.25;;;-4.67;nan
15229;BME280;7717;47.792;12.076;2023-02-28T01:05:43;96622.97;;;-4.72;nan
15229;BME280;7717;47.792;12.076;2023-02-28T01:08:09;96613.69;;;-4.88;nan
15229;BME280;7717;47.792;12.076;2023-02-28T01:10:35;96620.31;;;-4.89;nan
15229;BME280;7717;47.792;12.076;2023-02-28T01:13:02;96614.63;;;-4.86;nan
15229;BME280;7717;47.792;12.076;2023-02-28T01:15:28;96607.56;;;-5.07;nan
15229;BME280;7717;47.792;12.076;2023-02-28T01:17:53;96610.06;;;-4.93;nan
15229;BME280;7717;47.792;12.076;2023-02-28T01:20:19;96619.38;;;-5.04;nan
15229;BME280;7717;47.792;12.076;2023-02-28T01:22:44;96618.03;;;-5.12;nan
15229;BME280;7717;47.792;12.076;2023-02-28T01:25:10;96617.53;;;-5.07;nan
15229;BME280;7717;47.792;12.076;2023-02-28T01:27:35;96620.97;;;-4.91;nan
15229;BME280;7717;47.792;12.076;2023-02-28T01:30:01;96607.94;;;-5.00;nan
15229;BME280;7717;47.792;12.076;2023-02-28T01:32:27;96614.75;;;-4.98;nan
15229;BME280;7717;47.792;12.076;2023-02-28T01:34:52;96606.88;;;-5.04;nan
15229;BME280;7717;47.792;12.076;2023-02-28T01:37:17;96603.13;;;-4.97;nan
15229;BME280;7717;47.792;12.076;2023-02-28T01:39:43;96609.56;;;-5.01;nan
15229;BME280;7717;47.792;12.076;2023-02-28T01:42:09;96605.06;;;-5.20;nan
15229;BME280;7717;47.792;12.076;2023-02-28T01:44:55;96610.53;;;-5.26;nan
15229;BME280;7717;47.792;12.076;2023-02-28T01:47:22;96598.91;;;-5.65;nan
15229;BME280;7717;47.792;12.076;2023-02-28T01:49:51;96604.34;;;-5.71;nan
15229;BME280;7717;47.792;12.076;2023-02-28T01:52:17;96607.78;;;-5.82;nan
15229;BME280;7717;47.792;12.076;2023-02-28T01:54:47;96605.59;;;-5.64;nan
15229;BME280;7717;47.792;12.076;2023-02-28T01:57:17;96588.91;;;-5.79;nan
15229;BME280;7717;47.792;12.076;2023-02-28T02:00:00;96614.47;;;-5.56;nan
15229;BME280;7717;47.792;12.076;2023-02-28T02:02:30;96610.53;;;-5.52;nan
15229;BME280;7717;47.792;12.076;2023-02-28T02:05:24;96602.75;;;-5.57;nan
15229;BME280;7717;47.792;12.076;2023-02-28T02:07:54;96603.00;;;-5.79;nan
15229;BME280;7717;47.792;12.076;2023-02-28T02:10:23;96598.13;;;-5.78;nan
15229;BME280;7717;47.792;12.076;2023-02-28T02:16:12;96602.16;;;-5.66;nan
15229;BME280;7717;47.792;12.076;2023-02-28T02:21:35;96601.00;;;-5.71;nan
15229;BME280;7717;47.792;12.076;2023-02-28T02:26:55;96597.41;;;-5.88;nan
15229;BME280;7717;47.792;12.076;2023-02-28T02:29:30;96598.66;;;-5.95;nan
15229;BME280;7717;47.792;12.076;2023-02-28T02:32:14;96600.75;;;-5.88;nan
15229;BME280;7717;47.792;12.076;2023-02-28T02:40:25;96604.09;;;-6.14;nan
15229;BME280;7717;47.792;12.076;2023-02-28T02:46:02;96593.81;;;-6.19;nan
15229;BME280;7717;47.792;12.076;2023-02-28T02:48:30;96602.41;;;-6.27;nan
15229;BME280;7717;47.792;12.076;2023-02-28T02:51:01;96593.56;;;-6.35;nan
15229;BME280;7717;47.792;12.076;2023-02-28T02:53:38;96600.38;;;-6.32;nan
15229;BME280;7717;47.792;12.076;2023-02-28T02:56:07;96594.78;;;-6.17;nan
15229;BME280;7717;47.792;12.076;2023-02-28T02:58:36;96588.59;;;-6.47;nan
15229;BME280;7717;47.792;12.076;2023-02-28T03:01:08;96597.78;;;-6.34;nan
15229;BME280;7717;47.792;12.076;2023-02-28T03:03:36;96598.94;;;-6.29;nan
15229;BME280;7717;47.792;12.076;2023-02-28T03:06:02;96595.59;;;-6.29;nan
15229;BME280;7717;47.792;12.076;2023-02-28T03:08:31;96589.31;;;-6.36;nan
15229;BME280;7717;47.792;12.076;2023-02-28T03:11:00;96595.63;;;-6.41;nan
15229;BME280;7717;47.792;12.076;2023-02-28T03:22:25;96592.06;;;-6.82;nan
15229;BME280;7717;47.792;12.076;2023-02-28T03:25:09;96594.34;;;-6.85;nan
15229;BME280;7717;47.792;12.076;2023-02-28T03:30:16;96601.63;;;-6.88;nan
15229;BME280;7717;47.792;12.076;2023-02-28T03:35:34;96599.44;;;-6.83;nan
15229;BME280;7717;47.792;12.076;2023-02-28T03:38:33;96599.66;;;-6.80;nan
15229;BME280;7717;47.792;12.076;2023-02-28T03:41:15;96601.72;;;-6.87;nan
15229;BME280;7717;47.792;12.076;2023-02-28T03:43:46;96605.84;;;-6.99;nan
15229;BME280;7717;47.792;12.076;2023-02-28T03:46:16;96589.53;;;-7.07;nan
15229;BME280;7717;47.792;12.076;2023-02-28T03:48:53;96606.53;;;-7.01;nan
15229;BME280;7717;47.792;12.076;2023-02-28T03:51:22;96606.19;;;-7.06;nan
15229;BME280;7717;47.792;12.076;2023-02-28T03:54:05;96599.81;;;-7.02;nan
15229;BME280;7717;47.792;12.076;2023-02-28T03:56:39;96606.94;;;-7.07;nan
15229;BME280;7717;47.792;12.076;2023-02-28T04:01:50;96597.31;;;-7.14;nan
15229;BME280;7717;47.792;12.076;2023-02-28T04:04:17;96618.41;;;-7.09;nan
15229;BME280;7717;47.792;12.076;2023-02-28T04:06:43;96615.25;;;-6.95;nan
15229;BME280;7717;47.792;12.076;2023-02-28T04:09:11;96612.66;;;-7.08;nan
15229;BME280;7717;47.792;12.076;2023-02-28T04:11:40;96623.47;;;-6.96;nan
15229;BME280;7717;47.792;12.076;2023-02-28T04:14:07;96621.56;;;-7.00;nan
15229;BME280;7717;47.792;12.076;2023-02-28T04:16:35;96622.63;;;-7.08;nan
15229;BME280;7717;47.792;12.076;2023-02-28T04:19:02;96626.00;;;-7.08;nan
15229;BME280;7717;47.792;12.076;2023-02-28T04:21:37;96623.19;;;-7.12;nan
15229;BME280;7717;47.792;12.076;2023-02-28T04:24:04;96633.56;;;-7.06;nan
15229;BME280;7717;47.792;12.076;2023-02-28T04:26:30;96631.69;;;-7.20;nan
15229;BME280;7717;47.792;12.076;2023-02-28T04:28:56;96636.47;;;-7.24;nan
15229;BME280;7717;47.792;12.076;2023-02-28T04:31:22;96632.03;;;-7.28;nan
15229;BME280;7717;47.792;12.076;2023-02-28T04:33:47;96632.03;;;-7.16;nan
15229;BME280;7717;47.792;12.076;2023-02-28T04:36:12;96624.34;;;-7.19;nan
15229;BME280;7717;47.792;12.076;2023-02-28T04:38:40;96627.16;;;-7.38;nan
15229;BME280;7717;47.792;12.076;2023-02-28T04:41:05;96638.75;;;-7.38;nan
15229;BME280;7717;47.792;12.076;2023-02-28T04:43:31;96629.75;;;-7.60;nan
15229;BME280;7717;47.792;12.076;2023-02-28T04:45:58;96638.38;;;-7.55;nan
15229;BME280;7717;47.792;12.076;2023-02-28T04:48:32;96638.97;;;-7.35;nan
15229;BME280;7717;47.792;12.076;2023-02-28T04:51:06;96640.47;;;-7.26;nan
15229;BME280;7717;47.792;12.076;2023-02-28T04:53:32;96638.63;;;-7.40;nan
15229;BME280;7717;47.792;12.076;2023-02-28T04:55:58;96642.22;;;-7.25;nan
15229;BME280;7717;47.792;12.076;2023-02-28T04:58:24;96637.03;;;-7.28;nan
15229;BME280;7717;47.792;12.076;2023-02-28T05:00:51;96635.94;;;-7.43;nan
15229;BME280;7717;47.792;12.076;2023-02-28T05:03:16;96645.75;;;-7.45;nan
15229;BME280;7717;47.792;12.076;2023-02-28T05:05:41;96646.53;;;-7.34;nan
15229;BME280;7717;47.792;12.076;2023-02-28T05:08:07;96647.28;;;-7.35;nan
15229;BME280;7717;47.792;12.076;2023-02-28T05:10:32;96645.53;;;-7.48;nan
15229;BME280;7717;47.792;12.076;2023-02-28T05:12:58;96650.09;;;-7.42;nan
15229;BME280;7717;47.792;12.076;2023-02-28T05:15:23;96650.28;;;-7.51;nan
15229;BME280;7717;47.792;12.076;2023-02-28T05:17:50;96659.28;;;-7.41;nan
15229;BME280;7717;47.792;12.076;2023-02-28T05:20:15;96665.25;;;-7.39;nan
15229;BME280;7717;47.792;12.076;2023-02-28T05:22:41;96658.31;;;-7.43;nan
15229;BME280;7717;47.792;12.076;2023-02-28T05:25:10;96664.69;;;-7.47;nan
15229;BME280;7717;47.792;12.076;2023-02-28T05:27:37;96653.75;;;-7.49;nan
15229;BME280;7717;47.792;12.076;2023-02-28T05:30:03;96660.16;;;-7.40;nan
15229;BME280;7717;47.792;12.076;2023-02-28T05:32:29;96661.88;;;-7.51;nan
15229;BME280;7717;47.792;12.076;2023-02-28T05:34:54;96653.19;;;-7.56;nan
15229;BME280;7717;47.792;12.076;2023-02-28T05:37:20;96658.28;;;-7.55;nan
15229;BME280;7717;47.792;12.076;2023-02-28T05:39:46;96666.19;;;-7.49;nan
15229;BME280;7717;47.792;12.076;2023-02-28T05:42:11;96677.00;;;-7.48;nan
15229;BME280;7717;47.792;12.076;2023-02-28T05:44:37;96670.38;;;-7.60;nan
15229;BME280;7717;47.792;12.076;2023-02-28T05:47:02;96666.59;;;-7.66;nan
15229;BME280;7717;47.792;12.076;2023-02-28T05:49:28;96680.75;;;-7.53;nan
15229;BME280;7717;47.792;12.076;2023-02-28T05:51:53;96678.59;;;-7.49;nan
15229;BME280;7717;47.792;12.076;2023-02-28T05:54:19;96682.84;;;-7.48;nan
15229;BME280;7717;47.792;12.076;2023-02-28T05:56:44;96688.00;;;-7.56;nan
15229;BME280;7717;47.792;12.076;2023-02-28T05:59:11;96701.22;;;-7.34;nan
15229;BME280;7717;47.792;12.076;2023-02-28T06:01:40;96697.78;;;-7.24;nan
15229;BME280;7717;47.792;12.076;2023-02-28T06:04:08;96696.47;;;-7.19;nan
15229;BME280;7717;47.792;12.076;2023-02-28T06:06:35;96686.19;;;-7.24;nan
15229;BME280;7717;47.792;12.076;2023-02-28T06:09:01;96692.91;;;-7.22;nan
15229;BME280;7717;47.792;12.076;2023-02-28T06:11:27;96682.97;;;-7.22;nan
15229;BME280;7717;47.792;12.076;2023-02-28T06:13:54;96696.59;;;-6.82;nan
15229;BME280;7717;47.792;12.076;2023-02-28T06:16:20;96687.50;;;-6.70;nan
15229;BME280;7717;47.792;12.076;2023-02-28T06:18:45;96700.00;;;-6.44;nan
15229;BME280;7717;47.792;12.076;2023-02-28T06:21:12;96701.91;;;-6.17;nan
15229;BME280;7717;47.792;12.076;2023-02-28T06:23:37;96696.59;;;-5.96;nan
15229;BME280;7717;47.792;12.076;2023-02-28T06:26:02;96695.34;;;-5.78;nan
15229;BME280;7717;47.792;12.076;2023-02-28T06:28:28;96704.47;;;-5.65;nan
15229;BME280;7717;47.792;12.076;2023-02-28T06:30:53;96699.75;;;-5.48;nan
15229;BME280;7717;47.792;12.076;2023-02-28T06:33:19;96696.41;;;-5.22;nan
15229;BME280;7717;47.792;12.076;2023-02-28T06:35:46;96694.81;;;-5.21;nan
15229;BME280;7717;47.792;12.076;2023-02-28T06:38:12;96707.31;;;-4.95;nan
15229;BME280;7717;47.792;12.076;2023-02-28T06:40:37;96699.06;;;-4.80;nan
15229;BME280;7717;47.792;12.076;2023-02-28T06:43:03;96697.13;;;-4.58;nan
15229;BME280;7717;47.792;12.076;2023-02-28T06:45:28;96698.66;;;-4.46;nan
15229;BME280;7717;47.792;12.076;2023-02-28T06:47:54;96704.13;;;-4.52;nan
15229;BME280;7717;47.792;12.076;2023-02-28T06:50:19;96708.41;;;-4.36;nan
15229;BME280;7717;47.792;12.076;2023-02-28T06:52:45;96708.22;;;-4.12;nan
15229;BME280;7717;47.792;12.076;2023-02-28T06:55:11;96706.66;;;-3.82;nan
15229;BME280;7717;47.792;12.076;2023-02-28T06:57:36;96688.75;;;-3.75;nan
15229;BME280;7717;47.792;12.076;2023-02-28T07:00:05;96711.91;;;-3.49;nan
15229;BME280;7717;47.792;12.076;2023-02-28T07:02:33;96703.72;;;-3.32;nan
15229;BME280;7717;47.792;12.076;2023-02-28T07:04:58;96710.88;;;-3.38;nan
15229;BME280;7717;47.792;12.076;2023-02-28T07:07:24;96709.34;;;-3.36;nan
15229;BME280;7717;47.792;12.076;2023-02-28T07:09:49;96697.78;;;-2.89;nan
15229;BME280;7717;47.792;12.076;2023-02-28T07:12:15;96711.44;;;-2.21;nan
15229;BME280;7717;47.792;12.076;2023-02-28T07:14:40;96698.63;;;-2.11;nan
15229;BME280;7717;47.792;12.076;2023-02-28T07:17:10;96705.38;;;-1.60;nan
15229;BME280;7717;47.792;12.076;2023-02-28T07:19:40;96701.63;;;-1.69;nan
15229;BME280;7717;47.792;12.076;2023-02-28T07:22:06;96700.19;;;-1.47;nan
15229;BME280;7717;47.792;12.076;2023-02-28T07:24:32;96706.47;;;-1.39;nan
15229;BME280;7717;47.792;12.076;2023-02-28T07:26:57;96715.19;;;-1.65;nan
15229;BME280;7717;47.792;12.076;2023-02-28T07:29:22;96714.53;;;-1.94;nan
15229;BME280;7717;47.792;12.076;2023-02-28T07:31:48;96705.44;;;-1.75;nan
15229;BME280;7717;47.792;12.076;2023-02-28T07:34:15;96713.44;;;-1.50;nan
15229;BME280;7717;47.792;12.076;2023-02-28T07:36:40;96704.09;;;-1.36;nan
15229;BME280;7717;47.792;12.076;2023-02-28T07:39:06;96714.16;;;-1.36;nan
15229;BME280;7717;47.792;12.076;2023-02-28T07:41:31;96705.34;;;-0.93;nan
15229;BME280;7717;47.792;12.076;2023-02-28T07:43:59;96713.44;;;-0.99;nan
15229;BME280;7717;47.792;12.076;2023-02-28T07:46:25;96713.31;;;-1.18;nan
15229;BME280;7717;47.792;12.076;2023-02-28T07:48:51;96705.19;;;-0.78;nan
15229;BME280;7717;47.792;12.076;2023-02-28T07:51:18;96710.31;;;-0.59;nan
15229;BME280;7717;47.792;12.076;2023-02-28T07:53:47;96703.94;;;-0.70;nan
15229;BME280;7717;47.792;12.076;2023-02-28T07:56:12;96709.75;;;-1.05;nan
15229;BME280;7717;47.792;12.076;2023-02-28T07:58:37;96714.41;;;-1.13;nan
15229;BME280;7717;47.792;12.076;2023-02-28T08:01:07;96715.72;;;-1.03;nan
15229;BME280;7717;47.792;12.076;2023-02-28T08:03:33;96713.34;;;-1.00;nan
15229;BME280;7717;47.792;12.076;2023-02-28T08:05:58;96686.38;;;-1.04;nan
15229;BME280;7717;47.792;12.076;2023-02-28T08:08:24;96703.41;;;-0.81;nan
15229;BME280;7717;47.792;12.076;2023-02-28T08:10:49;96703.50;;;-1.14;nan
15229;BME280;7717;47.792;12.076;2023-02-28T08:13:14;96701.47;;;-0.68;nan
15229;BME280;7717;47.792;12.076;2023-02-28T08:15:41;96690.78;;;-0.82;nan
15229;BME280;7717;47.792;12.076;2023-02-28T08:18:07;96703.06;;;-0.52;nan
15229;BME280;7717;47.792;12.076;2023-02-28T08:20:33;96704.78;;;-0.69;nan
15229;BME280;7717;47.792;12.076;2023-02-28T08:22:58;96697.16;;;-0.35;nan
15229;BME280;7717;47.792;12.076;2023-02-28T08:25:24;96706.56;;;-0.31;nan
15229;BME280;7717;47.792;12.076;2023-02-28T08:27:51;96699.97;;;0.28;nan
15229;BME280;7717;47.792;12.076;2023-02-28T08:30:17;96692.91;;;0.60;nan
15229;BME280;7717;47.792;12.076;2023-02-28T08:32:42;96690.25;;;0.57;nan
15229;BME280;7717;47.792;12.076;2023-02-28T08:35:08;96670.75;;;0.73;nan
15229;BME280;7717;47.792;12.076;2023-02-28T08:37:34;96682.13;;;0.84;nan
15229;BME280;7717;47.792;12.076;2023-02-28T08:39:59;96691.75;;;0.93;nan
15229;BME280;7717;47.792;12.076;2023-02-28T08:42:25;96686.69;;;1.14;nan
15229;BME280;7717;47.792;12.076;2023-02-28T08:44:50;96679.13;;;0.32;nan
15229;BME280;7717;47.792;12.076;2023-02-28T08:47:16;96692.59;;;0.52;nan
15229;BME280;7717;47.792;12.076;2023-02-28T08:49:41;96694.84;;;0.87;nan
15229;BME280;7717;47.792;12.076;2023-02-28T08:52:06;96695.75;;;0.48;nan
15229;BME280;7717;47.792;12.076;2023-02-28T08:54:32;96694.50;;;1.20;nan
15229;BME280;7717;47.792;12.076;2023-02-28T08:56:58;96678.75;;;1.92;nan
15229;BME280;7717;47.792;12.076;2023-02-28T08:59:24;96673.75;;;1.71;nan
15229;BME280;7717;47.792;12.076;2023-02-28T09:01:49;96680.25;;;1.87;nan
15229;BME280;7717;47.792;12.076;2023-02-28T09:04:14;96673.19;;;2.99;nan
15229;BME280;7717;47.792;12.076;2023-02-28T09:06:40;96653.59;;;3.46;nan
15229;BME280;7717;47.792;12.076;2023-02-28T09:09:05;96692.44;;;2.21;nan
15229;BME280;7717;47.792;12.076;2023-02-28T09:11:33;96702.19;;;2.34;nan
15229;BME280;7717;47.792;12.076;2023-02-28T09:13:59;96673.03;;;3.47;nan
15229;BME280;7717;47.792;12.076;2023-02-28T09:16:26;96666.56;;;3.57;nan
15229;BME280;7717;47.792;12.076;2023-02-28T09:18:51;96683.59;;;3.61;nan
15229;BME280;7717;47.792;12.076;2023-02-28T09:21:18;96609.22;;;5.20;nan
15229;BME280;7717;47.792;12.076;2023-02-28T09:23:45;96613.94;;;4.69;nan
15229;BME280;7717;47.792;12.076;2023-02-28T09:26:16;96696.50;;;4.29;nan
15229;BME280;7717;47.792;12.076;2023-02-28T09:28:42;96697.31;;;3.69;nan
15229;BME280;7717;47.792;12.076;2023-02-28T09:31:12;96675.19;;;4.85;nan
15229;BME280;7717;47.792;12.076;2023-02-28T09:33:38;96681.22;;;4.57;nan
15229;BME280;7717;47.792;12.076;2023-02-28T09:36:03;96704.22;;;3.75;nan
15229;BME280;7717;47.792;12.076;2023-02-28T09:38:29;96714.22;;;3.43;nan
15229;BME280;7717;47.792;12.076;2023-02-28T09:40:58;96711.13;;;4.38;nan
15229;BME280;7717;47.792;12.076;2023-02-28T09:43:26;96705.34;;;5.08;nan
15229;BME280;7717;47.792;12.076;2023-02-28T09:45:59;96726.31;;;3.79;nan
15229;BME280;7717;47.792;12.076;2023-02-28T09:48:35;96702.00;;;4.45;nan
15229;BME280;7717;47.792;12.076;2023-02-28T09:51:08;96710.31;;;3.80;nan
15229;BME280;7717;47.792;12.076;2023-02-28T09:53:38;96713.22;;;4.23;nan
15229;BME280;7717;47.792;12.076;2023-02-28T09:56:10;96712.16;;;4.14;nan
15229;BME280;7717;47.792;12.076;2023-02-28T09:58:46;96709.41;;;4.37;nan
15229;BME280;7717;47.792;12.076;2023-02-28T10:06:44;96617.91;;;6.53;nan
15229;BME280;7717;47.792;12.076;2023-02-28T10:09:25;96720.31;;;6.03;nan
15229;BME280;7717;47.792;12.076;2023-02-28T10:11:54;96739.13;;;4.43;nan
15229;BME280;7717;47.792;12.076;2023-02-28T10:14:24;96765.41;;;4.16;nan
15229;BME280;7717;47.792;12.076;2023-02-28T10:16:55;96759.75;;;4.85;nan
15229;BME280;7717;47.792;12.076;2023-02-28T10:22:44;96734.47;;;5.22;nan
15229;BME280;7717;47.792;12.076;2023-02-28T10:25:23;96753.44;;;5.03;nan
15229;BME280;7717;47.792;12.076;2023-02-28T10:27:49;96746.25;;;5.20;nan
15229;BME280;7717;47.792;12.076;2023-02-28T10:30:18;96796.63;;;4.74;nan
15229;BME280;7717;47.792;12.076;2023-02-28T10:32:49;96804.84;;;4.96;nan
15229;BME280;7717;47.792;12.076;2023-02-28T10:35:17;96791.06;;;4.86;nan
15229;BME280;7717;47.792;12.076;2023-02-28T10:37:46;96790.31;;;4.31;nan
15229;BME280;7717;47.792;12.076;2023-02-28T10:43:01;96784.94;;;4.79;nan
15229;BME280;7717;47.792;12.076;2023-02-28T10:45:29;96836.66;;;4.00;nan
15229;BME280;7717;47.792;12.076;2023-02-28T10:47:56;96838.09;;;3.66;nan
15229;BME280;7717;47.792;12.076;2023-02-28T10:50:52;96834.84;;;3.42;nan
15229;BME280;7717;47.792;12.076;2023-02-28T10:58:29;96777.41;;;4.82;nan
15229;BME280;7717;47.792;12.076;2023-02-28T11:00:58;96741.41;;;5.29;nan
15229;BME280;7717;47.792;12.076;2023-02-28T11:03:25;96783.91;;;5.36;nan
15229;BME280;7717;47.792;12.076;2023-02-28T11:05:51;96791.34;;;4.36;nan
15229;BME280;7717;47.792;12.076;2023-02-28T11:08:17;96797.72;;;3.17;nan
15229;BME280;7717;47.792;12.076;2023-02-28T11:10:53;96782.06;;;4.37;nan
15229;BME280;7717;47.792;12.076;2023-02-28T11:13:33;96793.22;;;3.87;nan
15229;BME280;7717;47.792;12.076;2023-02-28T11:16:03;96778.84;;;5.04;nan
15229;BME280;7717;47.792;12.076;2023-02-28T11:18:55;96755.38;;;5.47;nan
15229;BME280;7717;47.792;12.076;2023-02-28T11:21:37;96748.38;;;5.36;nan
15229;BME280;7717;47.792;12.076;2023-02-28T11:24:19;96788.47;;;6.21;nan
15229;BME280;7717;47.792;12.076;2023-02-28T11:26:47;96757.44;;;5.27;nan
15229;BME280;7717;47.792;12.076;2023-02-28T11:29:24;96805.47;;;5.52;nan
15229;BME280;7717;47.792;12.076;2023-02-28T11:34:31;96800.72;;;4.69;nan
15229;BME280;7717;47.792;12.076;2023-02-28T11:36:59;96795.44;;;5.23;nan
15229;BME280;7717;47.792;12.076;2023-02-28T11:39:26;96746.94;;;5.48;nan
15229;BME280;7717;47.792;12.076;2023-02-28T11:47:14;96806.66;;;5.01;nan
15229;BME280;7717;47.792;12.076;2023-02-28T11:50:04;96777.53;;;4.87;nan
15229;BME280;7717;47.792;12.076;2023-02-28T11:55:29;96802.06;;;4.58;nan
15229;BME280;7717;47.792;12.076;2023-02-28T11:58:19;96789.94;;;4.19;nan
15229;BME280;7717;47.792;12.076;2023-02-28T12:06:19;96780.31;;;4.64;nan
15229;BME280;7717;47.792;12.076;2023-02-28T12:11:51;96802.16;;;3.76;nan
15229;BME280;7717;47.792;12.076;2023-02-28T12:23:01;96791.78;;;5.14;nan
15229;BME280;7717;47.792;12.076;2023-02-28T12:27:37;96758.50;;;5.03;nan
15229;BME280;7717;47.792;12.076;2023-02-28T12:30:25;96758.84;;;4.83;nan
15229;BME280;7717;47.792;12.076;2023-02-28T12:33:14;96746.25;;;5.20;nan
15229;BME280;7717;47.792;12.076;2023-02-28T12:35:55;96732.19;;;5.68;nan
15229;BME280;7717;47.792;12.076;2023-02-28T12:38:24;96745.75;;;5.68;nan
15229;BME280;7717;47.792;12.076;2023-02-28T12:40:54;96758.19;;;5.94;nan
15229;BME280;7717;47.792;12.076;2023-02-28T12:43:25;96697.53;;;6.08;nan
15229;BME280;7717;47.792;12.076;2023-02-28T12:45:58;96760.81;;;5.62;nan
15229;BME280;7717;47.792;12.076;2023-02-28T12:48:29;96739.41;;;5.16;nan
15229;BME280;7717;47.792;12.076;2023-02-28T12:50:57;96743.59;;;6.63;nan
15229;BME280;7717;47.792;12.076;2023-02-28T12:56:13;96660.34;;;8.19;nan
15229;BME280;7717;47.792;12.076;2023-02-28T12:59:01;96587.53;;;8.44;nan
15229;BME280;7717;47.792;12.076;2023-02-28T13:04:26;96556.13;;;9.71;nan
15229;BME280;7717;47.792;12.076;2023-02-28T13:09:31;96488.69;;;13.14;nan
15229;BME280;7717;47.792;12.076;2023-02-28T13:11:57;96468.50;;;11.01;nan
15229;BME280;7717;47.792;12.076;2023-02-28T13:17:20;96383.78;;;12.72;nan
15229;BME280;7717;47.792;12.076;2023-02-28T13:19:56;96496.66;;;11.24;nan
15229;BME280;7717;47.792;12.076;2023-02-28T13:24:55;96583.78;;;11.16;nan
15229;BME280;7717;47.792;12.076;2023-02-28T13:27:40;96610.81;;;10.01;nan
15229;BME280;7717;47.792;12.076;2023-02-28T13:33:23;96750.41;;;5.86;nan
15229;BME280;7717;47.792;12.076;2023-02-28T13:36:06;96705.91;;;7.38;nan
15229;BME280;7717;47.792;12.076;2023-02-28T13:38:35;96588.03;;;11.12;nan
15229;BME280;7717;47.792;12.076;2023-02-28T13:44:02;96618.50;;;10.04;nan
15229;BME280;7717;47.792;12.076;2023-02-28T13:46:28;96661.44;;;9.23;nan
15229;BME280;7717;47.792;12.076;2023-02-28T13:48:53;96681.13;;;11.13;nan
15229;BME280;7717;47.792;12.076;2023-02-28T13:51:40;96456.38;;;12.88;nan
15229;BME280;7717;47.792;12.076;2023-02-28T13:54:34;96442.38;;;12.24;nan
15229;BME280;7717;47.792;12.076;2023-02-28T13:57:24;96469.22;;;12.90;nan
15229;BME280;7717;47.792;12.076;2023-02-28T14:00:16;96454.66;;;11.60;nan
15229;BME280;7717;47.792;12.076;2023-02-28T14:05:18;96663.09;;;12.19;nan
15229;BME280;7717;47.792;12.076;2023-02-28T14:07:47;96577.78;;;10.78;nan
15229;BME280;7717;47.792;12.076;2023-02-28T14:10:29;96552.06;;;11.63;nan
15229;BME280;7717;47.792;12.076;2023-02-28T14:15:56;96563.13;;;11.85;nan
15229;BME280;7717;47.792;12.076;2023-02-28T14:18:29;96531.69;;;10.68;nan
15229;BME280;7717;47.792;12.076;2023-02-28T14:21:21;96559.88;;;10.78;nan
15229;BME280;7717;47.792;12.076;2023-02-28T14:37:47;96649.91;;;9.77;nan
15229;BME280;7717;47.792;12.076;2023-02-28T14:40:27;96647.59;;;8.97;nan
15229;BME280;7717;47.792;12.076;2023-02-28T14:42:57;96653.66;;;9.10;nan
15229;BME280;7717;47.792;12.076;2023-02-28T14:45:23;96677.13;;;9.70;nan
15229;BME280;7717;47.792;12.076;2023-02-28T14:47:51;96623.69;;;8.89;nan
15229;BME280;7717;47.792;12.076;2023-02-28T14:50:33;96624.81;;;9.19;nan
15229;BME280;7717;47.792;12.076;2023-02-28T14:52:59;96617.63;;;10.02;nan
15229;BME280;7717;47.792;12.076;2023-02-28T14:55:30;96604.41;;;9.22;nan
15229;BME280;7717;47.792;12.076;2023-02-28T14:57:59;96653.94;;;8.52;nan
15229;BME280;7717;47.792;12.076;2023-02-28T15:00:33;96661.91;;;8.80;nan
15229;BME280;7717;47.792;12.076;2023-02-28T15:03:00;96663.38;;;9.56;nan
15229;BME280;7717;47.792;12.076;2023-02-28T15:10:37;96598.03;;;10.09;nan
15229;BME280;7717;47.792;12.076;2023-02-28T15:13:07;96588.91;;;10.91;nan
15229;BME280;7717;47.792;12.076;2023-02-28T15:15:46;96631.19;;;9.89;nan
15229;BME280;7717;47.792;12.076;2023-02-28T15:18:24;96569.25;;;11.20;nan
15229;BME280;7717;47.792;12.076;2023-02-28T15:20:52;96655.25;;;10.28;nan
15229;BME280;7717;47.792;12.076;2023-02-28T15:23:20;96671.13;;;9.67;nan
15229;BME280;7717;47.792;12.076;2023-02-28T15:25:47;96619.34;;;10.00;nan
15229;BME280;7717;47.792;12.076;2023-02-28T15:28:16;96622.09;;;10.48;nan
15229;BME280;7717;47.792;12.076;2023-02-28T15:30:52;96586.09;;;10.00;nan
15229;BME280;7717;47.792;12.076;2023-02-28T15:33:26;96638.13;;;10.12;nan
15229;BME280;7717;47.792;12.076;2023-02-28T15:36:03;96625.41;;;10.27;nan
15229;BME280;7717;47.792;12.076;2023-02-28T15:38:29;96695.34;;;10.29;nan
15229;BME280;7717;47.792;12.076;2023-02-28T15:40:56;96732.97;;;9.24;nan